Pinehurst, Massachusetts
Current Conditions -  °F | °C
As of 12:56 PM on Saturday 20 Dec 2014 (Local Time) from KBED Reporting Station
Overcast Overcast  
Wind Chill: 33°   Ceiling: 2300
Heat Index: 33°   Visibility: 10mi
Dew Point: 22°   Wind: 3mph
Humidity: 64%   Direction: NA
Pressure: 30.25"   Gusts: NA
Location:  42.53°N, 71.23°W
Report Text: KBED 201756Z AUTO VRB03KT 10SM OVC023 01/M06 A3025 RMK AO2 SLP261 T00061056 10006 21067 56005 TSNO
Loading
Personal Weather Stations






























Interactive Weather Map New forecast layout! Learn more

10-Day Weather Forecast

Advertisements
Track Severe Weather on mobile